KRBG - Roseburg, Oregon, USA
Updated: Fri, 21-Jul-2017 2:53am PDT
Clear
Clear
 Wind from calm
Wind: Calm
Temperature: 57°F , 14°C
Dew Point: 52°F , 11°C
Humidity: 82%
Barometer: 30.14 inHg , 1020.7 hPa
Clouds: Clear
Visibility: 10 miles , 16 km
2017/07/21 09:53 KRBG 210953Z AUTO 00000KT 10SM CLR 14/11 A3014 RMK AO2 SLP204 T01440106

Metar display script from Saratoga-Weather.org